Share

Pierre, SD

2 miles north of airport (KSDPIERR1) Elev 1808 ft | 44.41 °N, 100.30 °W | Change Station

Current weather conditions updated 9 seconds ago

Clear
Clear
65.4 °F
Feels Like 65.4 °F
N
19.0
Wind Variable Wind from SE
Gusts 24.0 mph
Sunrise 6:51 AM
Sunset 8:29 PM
Moon Waning Gibbous

Today is forecast to be Much Warmer than yesterday.

Pressure 29.83 in
Visibility 10.0 miles
Clouds Clear
Dew Point 46 °F
Humidity 49%
Rainfall 0.00 in
Snow Depth Not available.
UV 9 out of 16
Pollen 9.60 out of 12
Air Quality Not available.
Flu Activity Sporadic
METAR KPIR 181753Z AUTO 14016G22KT 10SM CLR 18/04 A2983 RMK AO2 SLP101 T01780044 10178 20017 58024

More Conditions Fewer Conditions

Pressure 29.83 in
Visibility 10.0 miles
Clouds Clear
Dew Point 46 °F
Humidity 49%
Rainfall 0.00 in
Snow Depth Not available.
UV 9 out of 16
Pollen 9.60 out of 12
Air Quality Not available.
Flu Activity Sporadic
METAR KPIR 181753Z AUTO 14016G22KT 10SM CLR 18/04 A2983 RMK AO2 SLP101 T01780044 10178 20017 58024

More Conditions Fewer Conditions

10-Day Weather Forecast

Almanac

Astronomy

Apr. 18, 2014 Rise Set
Actual Time 6:51 AM CDT 8:29 PM CDT
Civil Twilight 6:21 AM CDT 8:59 PM CDT
Nautical Twilight 5:44 AM CDT 9:37 PM CDT
Astronomical Twilight 5:04 AM CDT 10:17 PM CDT
Moon No Moon Rise 9:10 AM CDT
Length of Visible Light 14h 38m
Length of Day
13h 37m
Tomorrow will be 2m 54s longer.
Waning Gibbous, 86% of the Moon is Illuminated
Today
Waning Gibbous
Apr 22
Last Quarter
Apr 29
New
May 6
First Quarter
May 14
Full

Today's Extremes

State Highs State Lows

Community

  • What's for Lunch?
    What's for Lunch?
  • SUNRISE THROUGH THE TREES.
    SUNRISE THROUGH THE TREES.
  • Dog Wood Blossoms
    Dog Wood Blossoms
  • Morning Light
    Morning Light
  • New Day
    New Day

WunderPhotos

Upload Photos

1,702,443 photos uploaded!

Nearby

Snow Depth

Station Depth Elevation
Blind Park 23 in 6890 ft

Coastal Water Temperatures

Place Temperature
No Stations Reporting

Earthquake Activity

City Distance Mag. Time & Date
No recent earthquake activity has been reported nearby.
Minimum magnitude displayed is 2.5.

Nearby Weather Stations

Station Location Temp. Dew Point Humidity Wind Precip. Elev Updated Type
2 miles north of airport, Pierre, SD 65.4 °F 46 °F 49% SE  at  19.0 mph 0.00 in / hr 1808 ft 1:13 PM CDT Rapid Fire
East of Hospital; Pierre, SD, Pierre, SD 68.2 °F 42 °F 38% SSE  at  10.0 mph 0.00 in / hr 1444 ft 1:10 PM CDT Normal

Show More Stations Show Fewer Stations

What do you think?

We're not finished. Please let us know what you like, what you don't like, and what you are still missing.